Time;durP1;ratioP1;P1;durP2;ratioP2;P2;SDS_P1;SDS_P2;PMS_P1;PMS_P2;Temp;Humidity;BMP_temperature;BMP_pressure;BME280_temperature;BME280_humidity;BME280_pressure;Samples;Min_cycle;Max_cycle;Signal;HPM_P1;HPM_P2
2023/03/27 00:00:41;;;;;;;7.20;1.53;;;;;4.30;101017.00;;;;10500444;28;20192;-77
2023/03/27 00:05:44;;;;;;;7.60;1.77;;;;;4.30;101018.00;;;;10534986;28;20204;-76
2023/03/27 00:10:47;;;;;;;6.57;1.93;;;;;4.30;101032.00;;;;10520095;28;20230;-76
2023/03/27 00:15:52;;;;;;;5.30;1.40;;;;;4.20;101050.00;;;;10528197;27;20253;-76
2023/03/27 00:20:57;;;;;;;8.33;1.73;;;;;4.30;101056.00;;;;10534282;27;20256;-76
2023/03/27 00:25:59;;;;;;;7.93;1.77;;;;;4.30;101060.00;;;;10519862;28;20204;-76
2023/03/27 00:31:02;;;;;;;7.10;1.50;;;;;4.30;101056.00;;;;10484931;28;20220;-76
2023/03/27 00:36:05;;;;;;;8.53;1.63;;;;;4.30;101063.00;;;;10537138;28;20253;-76
2023/03/27 00:41:07;;;;;;;8.33;1.60;;;;;4.30;101066.00;;;;10517888;28;20737;-76
2023/03/27 00:46:30;;;;;;;7.47;2.40;;;;;4.30;101068.00;;;;10510523;28;20192;-76
2023/03/27 00:51:35;;;;;;;5.57;1.80;;;;;4.40;101077.00;;;;10519034;28;20219;-76
2023/03/27 00:56:37;;;;;;;7.63;1.93;;;;;4.40;101077.00;;;;10515994;28;20204;-76
2023/03/27 01:01:41;;;;;;;13.67;2.27;;;;;4.40;101083.00;;;;10521270;28;20192;-76
2023/03/27 01:06:43;;;;;;;5.50;1.23;;;;;4.50;101091.00;;;;10505112;28;20212;-76
2023/03/27 01:11:59;;;;;;;7.97;1.60;;;;;4.50;101102.00;;;;10489275;28;20263;-76
2023/03/27 01:17:31;;;;;;;6.70;1.43;;;;;4.60;101118.00;;;;10460306;28;20200;-76
2023/03/27 01:22:51;;;;;;;8.70;2.43;;;;;4.50;101117.00;;;;10476969;28;20201;-76
2023/03/27 01:28:32;;;;;;;7.03;1.53;;;;;4.50;101117.00;;;;10508767;28;20220;-76
2023/03/27 01:34:02;;;;;;;9.37;1.90;;;;;4.40;101127.00;;;;10497955;28;20827;-76
2023/03/27 01:39:19;;;;;;;12.27;1.87;;;;;4.40;101132.00;;;;10499034;28;20257;-76
2023/03/27 01:44:42;;;;;;;4.17;1.53;;;;;4.40;101135.00;;;;10549885;27;20199;-76
2023/03/27 01:49:59;;;;;;;12.97;2.40;;;;;4.30;101142.00;;;;10596614;27;20645;-76
2023/03/27 01:55:08;;;;;;;7.63;1.43;;;;;4.30;101147.00;;;;10546698;27;20187;-76
2023/03/27 02:00:20;;;;;;;10.67;1.50;;;;;4.30;101155.00;;;;10499875;28;20288;-77
2023/03/27 02:05:26;;;;;;;8.73;1.70;;;;;4.30;101158.00;;;;10494608;28;20212;-76
2023/03/27 02:10:34;;;;;;;6.20;1.60;;;;;4.40;101154.00;;;;10527075;28;20224;-76
2023/03/27 02:15:45;;;;;;;5.53;1.53;;;;;4.30;101165.00;;;;10516153;28;20273;-76
2023/03/27 02:20:50;;;;;;;7.50;1.97;;;;;4.30;101173.00;;;;10489996;28;20207;-76
2023/03/27 02:25:53;;;;;;;7.03;1.80;;;;;4.30;101176.00;;;;10506823;28;20196;-76
2023/03/27 02:31:19;;;;;;;4.87;1.40;;;;;4.30;101182.00;;;;10535004;28;20224;-76
2023/03/27 02:37:02;;;;;;;6.90;2.00;;;;;4.30;101190.00;;;;10520560;28;20202;-76
2023/03/27 02:42:53;;;;;;;10.67;1.63;;;;;4.30;101196.00;;;;10545249;27;20246;-76
2023/03/27 02:48:06;;;;;;;4.30;1.47;;;;;4.30;101196.00;;;;10531631;27;20243;-76
2023/03/27 02:53:10;;;;;;;5.37;1.40;;;;;4.30;101214.00;;;;10481744;28;20211;-76
2023/03/27 02:58:18;;;;;;;3.20;1.30;;;;;4.30;101220.00;;;;10534776;28;20207;-76
2023/03/27 03:03:43;;;;;;;8.33;1.60;;;;;4.30;101234.00;;;;10529002;28;20254;-76
2023/03/27 03:09:06;;;;;;;4.77;1.57;;;;;4.30;101236.00;;;;10501196;28;20236;-76
2023/03/27 03:14:08;;;;;;;7.40;1.63;;;;;4.30;101234.00;;;;10536716;27;20225;-76
2023/03/27 03:19:10;;;;;;;3.57;1.27;;;;;4.30;101249.00;;;;10530059;28;20652;-76
2023/03/27 03:24:12;;;;;;;6.87;1.83;;;;;4.30;101255.00;;;;10499152;28;20219;-76
2023/03/27 03:29:15;;;;;;;5.03;1.20;;;;;4.30;101268.00;;;;10485881;28;20625;-76
2023/03/27 03:34:26;;;;;;;3.57;1.50;;;;;4.30;101261.00;;;;10515945;27;20196;-76
2023/03/27 03:39:28;;;;;;;6.27;1.77;;;;;4.30;101274.00;;;;10521661;28;20621;-77
2023/03/27 03:44:33;;;;;;;5.67;1.77;;;;;4.30;101289.00;;;;10503052;28;20609;-76
2023/03/27 03:49:45;;;;;;;3.47;1.53;;;;;4.30;101300.00;;;;10513899;28;20213;-76
2023/03/27 03:54:48;;;;;;;4.73;1.33;;;;;4.30;101294.00;;;;10498108;28;20231;-76
2023/03/27 03:59:50;;;;;;;3.40;1.27;;;;;4.20;101293.00;;;;10485092;28;20218;-76
2023/03/27 04:05:00;;;;;;;9.67;1.90;;;;;4.20;101309.00;;;;10521196;28;20206;-76
2023/03/27 04:10:14;;;;;;;5.50;1.70;;;;;4.20;101303.00;;;;10528639;28;20220;-76
2023/03/27 04:15:16;;;;;;;8.80;1.80;;;;;4.30;101309.00;;;;10518765;28;20231;-76
2023/03/27 04:20:40;;;;;;;5.90;1.30;;;;;4.30;101316.00;;;;10525401;28;20257;-76
2023/03/27 04:25:46;;;;;;;3.53;1.53;;;;;4.30;101330.00;;;;10528355;28;20205;-76
2023/03/27 04:30:53;;;;;;;4.17;1.30;;;;;4.30;101335.00;;;;10470293;28;20247;-76
2023/03/27 04:36:07;;;;;;;6.63;1.90;;;;;4.30;101355.00;;;;10531690;28;20275;-76
2023/03/27 04:41:33;;;;;;;4.60;1.57;;;;;4.40;101366.00;;;;10515405;28;20211;-76
2023/03/27 04:46:35;;;;;;;6.17;2.20;;;;;4.40;101364.00;;;;10525167;28;20279;-76
2023/03/27 04:51:42;;;;;;;5.70;1.80;;;;;4.30;101363.00;;;;10517297;28;20224;-76
2023/03/27 04:56:46;;;;;;;7.47;1.60;;;;;4.20;101368.00;;;;10482980;28;20211;-76
2023/03/27 05:01:49;;;;;;;6.03;1.43;;;;;4.20;101386.00;;;;10473951;28;20205;-76
2023/03/27 05:07:11;;;;;;;4.57;1.60;;;;;4.20;101397.00;;;;10459875;28;20243;-76
2023/03/27 05:12:13;;;;;;;5.00;2.10;;;;;4.20;101402.00;;;;10483670;28;20285;-76
2023/03/27 05:17:24;;;;;;;5.93;2.17;;;;;4.20;101414.00;;;;10519777;28;20480;-76
2023/03/27 05:22:27;;;;;;;6.43;2.40;;;;;4.30;101418.00;;;;10517097;28;20204;-76
2023/03/27 05:27:47;;;;;;;7.00;3.90;;;;;4.30;101437.00;;;;10501445;28;20290;-76
2023/03/27 05:32:51;;;;;;;12.07;3.20;;;;;4.20;101449.00;;;;10507823;28;20758;-77
2023/03/27 05:38:00;;;;;;;5.47;1.87;;;;;4.20;101454.00;;;;10531851;27;20873;-77
2023/03/27 05:43:07;;;;;;;4.03;1.13;;;;;4.20;101472.00;;;;10529104;27;20291;-76
2023/03/27 05:48:10;;;;;;;4.60;1.67;;;;;4.20;101477.00;;;;10525035;28;20220;-76
2023/03/27 05:53:15;;;;;;;8.40;2.00;;;;;4.10;101497.00;;;;10505371;28;20541;-76
2023/03/27 05:58:40;;;;;;;3.27;1.90;;;;;3.90;101494.00;;;;10495293;28;20720;-75
2023/03/27 06:03:42;;;;;;;7.17;1.97;;;;;3.70;101485.00;;;;10495426;28;20835;-74
2023/03/27 06:08:52;;;;;;;3.67;1.50;;;;;3.40;101501.00;;;;10520031;27;20211;-75
2023/03/27 06:13:55;;;;;;;4.53;1.27;;;;;3.20;101508.00;;;;10525948;27;20268;-75
2023/03/27 06:19:10;;;;;;;3.20;1.60;;;;;3.10;101526.00;;;;10554837;27;20196;-75
2023/03/27 06:24:21;;;;;;;4.70;1.77;;;;;2.90;101533.00;;;;10502018;28;20198;-75
2023/03/27 06:29:27;;;;;;;4.87;2.10;;;;;3.20;101541.00;;;;10508484;28;20211;-75
2023/03/27 06:34:29;;;;;;;3.90;2.03;;;;;3.60;101543.00;;;;10549555;27;20847;-75
2023/03/27 06:39:43;;;;;;;5.37;1.73;;;;;3.90;101543.00;;;;10553448;27;20216;-75
2023/03/27 06:44:45;;;;;;;7.57;2.37;;;;;4.20;101550.00;;;;10550812;27;20298;-75
2023/03/27 06:50:07;;;;;;;6.20;1.80;;;;;4.60;101537.00;;;;10534678;27;20251;-75
2023/03/27 06:55:10;;;;;;;5.87;1.70;;;;;5.00;101550.00;;;;10535762;27;20193;-75
2023/03/27 07:00:36;;;;;;;5.53;1.40;;;;;5.30;101540.00;;;;10552786;27;20183;-75
2023/03/27 07:05:54;;;;;;;4.10;1.60;;;;;5.50;101557.00;;;;10527602;28;20679;-77
2023/03/27 07:11:00;;;;;;;2.80;1.40;;;;;5.50;101561.00;;;;10494129;28;20235;-76
2023/03/27 07:16:19;;;;;;;2.07;1.60;;;;;6.30;101567.00;;;;10520340;27;20196;-77
2023/03/27 07:21:22;;;;;;;6.70;1.97;;;;;6.80;101564.00;;;;10534978;27;20246;-76
2023/03/27 07:26:24;;;;;;;5.60;2.00;;;;;7.20;101579.00;;;;10517636;27;20286;-77
2023/03/27 07:31:33;;;;;;;7.77;1.90;;;;;6.00;101602.00;;;;10548393;27;20307;-77
2023/03/27 07:37:02;;;;;;;2.30;1.27;;;;;4.90;101630.00;;;;10510576;27;20196;-76
2023/03/27 07:42:07;;;;;;;6.33;1.50;;;;;4.10;101665.00;;;;10551737;27;20220;-75
2023/03/27 07:47:32;;;;;;;4.13;0.73;;;;;3.40;101658.00;;;;10569400;27;20241;-75
2023/03/27 07:52:35;;;;;;;2.73;1.10;;;;;3.10;101656.00;;;;10532502;28;20255;-76
2023/03/27 07:57:43;;;;;;;3.93;1.20;;;;;3.00;101672.00;;;;10508606;28;20204;-76
2023/03/27 08:02:50;;;;;;;1.57;0.80;;;;;4.00;101663.00;;;;10548911;27;20180;-75
2023/03/27 08:07:53;;;;;;;2.03;0.93;;;;;5.00;101663.00;;;;10510294;28;20200;-76
2023/03/27 08:13:16;;;;;;;6.87;1.20;;;;;4.90;101665.00;;;;10529351;27;20218;-76
2023/03/27 08:18:18;;;;;;;3.73;1.00;;;;;5.90;101658.00;;;;10573535;27;20203;-76
2023/03/27 08:23:20;;;;;;;7.83;3.10;;;;;6.50;101656.00;;;;10506971;28;20289;-76
2023/03/27 08:28:53;;;;;;;2.87;1.70;;;;;7.40;101655.00;;;;10508741;28;20782;-77
2023/03/27 08:33:57;;;;;;;6.03;2.50;;;;;7.70;101656.00;;;;10515675;27;20192;-77
2023/03/27 08:39:03;;;;;;;2.17;1.50;;;;;8.80;101649.00;;;;10499816;27;20240;-76
2023/03/27 08:44:20;;;;;;;3.93;1.90;;;;;9.90;101665.00;;;;10523873;27;20196;-77
2023/03/27 08:49:27;;;;;;;3.27;1.43;;;;;6.80;101678.00;;;;10499063;28;20227;-76
2023/03/27 08:54:57;;;;;;;3.53;1.13;;;;;5.70;101676.00;;;;10527953;28;20211;-76
2023/03/27 09:00:21;;;;;;;5.90;1.33;;;;;5.30;101686.00;;;;10489962;28;20707;-76
2023/03/27 09:05:47;;;;;;;5.30;1.50;;;;;6.20;101683.00;;;;10473734;28;20854;-76
2023/03/27 09:11:02;;;;;;;1.60;1.03;;;;;7.30;101677.00;;;;10519682;28;20234;-77
2023/03/27 09:16:20;;;;;;;6.33;1.87;;;;;8.10;101669.00;;;;10523285;28;20211;-77
2023/03/27 09:21:45;;;;;;;4.80;1.50;;;;;8.60;101673.00;;;;10489475;28;20203;-77
2023/03/27 09:26:54;;;;;;;8.43;1.37;;;;;8.90;101670.00;;;;10505667;28;20197;-77
2023/03/27 09:32:28;;;;;;;4.30;1.63;;;;;9.00;101672.00;;;;10496647;28;20212;-77
2023/03/27 09:37:35;;;;;;;5.07;1.37;;;;;9.10;101668.00;;;;10528109;28;20206;-78
2023/03/27 09:42:42;;;;;;;6.40;1.60;;;;;9.60;101665.00;;;;10548516;28;20207;-78
2023/03/27 09:48:00;;;;;;;5.23;1.50;;;;;9.70;101661.00;;;;10544392;28;20208;-77
2023/03/27 09:53:14;;;;;;;7.03;1.67;;;;;9.90;101664.00;;;;10488961;28;20270;-77
2023/03/27 09:58:45;;;;;;;6.47;1.60;;;;;10.00;101672.00;;;;10520759;28;20196;-77
2023/03/27 10:03:53;;;;;;;3.30;1.20;;;;;9.80;101683.00;;;;10518158;28;20192;-77
2023/03/27 10:09:31;;;;;;;10.90;1.40;;;;;11.00;101677.00;;;;10524771;28;20214;-77
2023/03/27 10:14:44;;;;;;;3.90;0.87;;;;;8.20;101737.00;;;;10546310;27;20239;-78
2023/03/27 10:20:00;;;;;;;3.97;0.90;;;;;6.60;101739.00;;;;10544644;27;20195;-77
2023/03/27 10:25:20;;;;;;;7.47;1.10;;;;;6.80;101737.00;;;;10538337;28;20708;-77
2023/03/27 10:30:36;;;;;;;3.60;0.80;;;;;7.80;101730.00;;;;10525086;27;20294;-78
2023/03/27 10:35:51;;;;;;;5.37;1.30;;;;;8.50;101741.00;;;;10535351;27;20200;-78
2023/03/27 10:41:13;;;;;;;4.83;1.07;;;;;8.30;101735.00;;;;10505495;27;20208;-78
2023/03/27 10:46:36;;;;;;;4.23;1.73;;;;;8.20;101736.00;;;;10528612;27;20192;-77
2023/03/27 10:51:45;;;;;;;3.83;1.20;;;;;8.90;101741.00;;;;10506279;28;21012;-77
2023/03/27 10:57:33;;;;;;;4.43;0.90;;;;;9.60;101743.00;;;;10506575;28;20204;-78
2023/03/27 11:02:43;;;;;;;8.27;1.50;;;;;10.10;101741.00;;;;10487949;27;20204;-78
2023/03/27 11:07:51;;;;;;;1.57;0.60;;;;;10.80;101741.00;;;;10536500;27;20196;-78
2023/03/27 11:13:30;;;;;;;2.13;0.90;;;;;11.00;101731.00;;;;10504597;27;20220;-78
2023/03/27 11:18:46;;;;;;;4.63;1.07;;;;;11.40;101743.00;;;;10467970;28;20254;-78
2023/03/27 11:23:59;;;;;;;1.97;0.70;;;;;12.30;101744.00;;;;10478230;28;20193;-78
2023/03/27 11:29:19;;;;;;;4.27;0.80;;;;;13.30;101748.00;;;;10484129;28;20738;-79
2023/03/27 11:34:45;;;;;;;1.23;0.73;;;;;11.90;101766.00;;;;10535505;27;20206;-78
2023/03/27 11:40:11;;;;;;;6.03;0.90;;;;;11.00;101755.00;;;;10496928;28;20204;-79
2023/03/27 11:45:19;;;;;;;4.20;1.10;;;;;11.60;101756.00;;;;10519458;27;20196;-79
2023/03/27 11:50:48;;;;;;;2.67;0.80;;;;;11.50;101766.00;;;;10535013;27;20393;-78
2023/03/27 11:56:07;;;;;;;4.53;0.90;;;;;10.20;101763.00;;;;10518772;27;20200;-78
2023/03/27 12:01:26;;;;;;;1.93;1.00;;;;;10.10;101779.00;;;;10511210;28;20500;-78
2023/03/27 12:06:51;;;;;;;2.10;1.00;;;;;11.80;101769.00;;;;10518903;28;20605;-78
2023/03/27 12:12:03;;;;;;;6.13;1.37;;;;;12.90;101769.00;;;;10517585;28;20270;-79
2023/03/27 12:17:26;;;;;;;3.73;1.60;;;;;12.10;101766.00;;;;10476312;28;20943;-79
2023/03/27 12:22:47;;;;;;;6.07;1.07;;;;;12.40;101772.00;;;;10460348;28;20215;-79
2023/03/27 12:28:00;;;;;;;2.57;0.90;;;;;13.00;101767.00;;;;10496177;28;20204;-78
2023/03/27 12:33:36;;;;;;;3.33;1.20;;;;;13.30;101764.00;;;;10505602;27;20211;-79
2023/03/27 12:38:41;;;;;;;5.80;1.57;;;;;13.20;101773.00;;;;10490517;28;20250;-79
2023/03/27 12:43:45;;;;;;;4.13;0.90;;;;;13.30;101769.00;;;;10497048;27;20196;-79
2023/03/27 12:49:22;;;;;;;2.47;1.03;;;;;12.90;101773.00;;;;10507190;28;20287;-79
2023/03/27 12:55:25;;;;;;;5.17;0.83;;;;;11.30;101767.00;;;;10501140;28;20211;-78
2023/03/27 13:00:53;;;;;;;4.67;1.00;;;;;10.20;101776.00;;;;10481222;28;20283;-78
2023/03/27 13:06:11;;;;;;;6.10;1.13;;;;;10.90;101773.00;;;;10486964;28;20273;-78
2023/03/27 13:11:23;;;;;;;4.23;0.97;;;;;12.80;101762.00;;;;10486404;28;20227;-78
2023/03/27 13:16:49;;;;;;;5.90;1.00;;;;;11.90;101771.00;;;;10536997;27;20296;-79
2023/03/27 13:22:27;;;;;;;3.43;1.77;;;;;10.40;101784.00;;;;10523725;27;20220;-78
2023/03/27 13:27:47;;;;;;;4.63;1.03;;;;;9.40;101805.00;;;;10498091;28;20283;-78
2023/03/27 13:33:23;;;;;;;4.83;0.70;;;;;13.00;101762.00;;;;10513245;28;20223;-79
2023/03/27 13:38:51;;;;;;;2.20;0.83;;;;;15.60;101803.00;;;;10475815;28;20215;-79
2023/03/27 13:43:56;;;;;;;3.47;1.10;;;;;16.50;101759.00;;;;10496684;27;20196;-80
2023/03/27 13:49:40;;;;;;;4.13;1.10;;;;;17.30;101753.00;;;;10506566;28;20228;-79
2023/03/27 13:55:15;;;;;;;3.17;1.47;;;;;18.60;101761.00;;;;10515197;28;20192;-80
2023/03/27 14:01:08;;;;;;;2.97;1.03;;;;;11.90;101789.00;;;;10535385;28;20856;-79
2023/03/27 14:06:48;;;;;;;3.53;0.97;;;;;9.30;101821.00;;;;10496468;28;20291;-78
2023/03/27 14:12:17;;;;;;;6.47;1.73;;;;;8.90;101811.00;;;;10498480;28;20216;-78
2023/03/27 14:17:51;;;;;;;6.20;1.30;;;;;14.70;101796.00;;;;10518564;28;20200;-80
2023/03/27 14:23:02;;;;;;;7.20;1.57;;;;;10.40;101817.00;;;;10523088;28;20202;-78
2023/03/27 14:28:53;;;;;;;4.13;1.50;;;;;8.70;101816.00;;;;10540593;28;20200;-77
2023/03/27 14:34:23;;;;;;;3.37;0.90;;;;;8.10;101791.00;;;;10507326;27;20203;-79
2023/03/27 14:39:53;;;;;;;4.93;1.17;;;;;14.90;101757.00;;;;10509562;27;20230;-79
2023/03/27 14:45:16;;;;;;;4.63;1.00;;;;;15.10;101792.00;;;;10502234;28;20674;-79
2023/03/27 14:50:21;;;;;;;3.30;1.07;;;;;12.30;101840.00;;;;10502137;28;20220;-78
2023/03/27 14:55:33;;;;;;;2.23;0.80;;;;;9.40;101829.00;;;;10518166;28;20204;-78
2023/03/27 15:00:59;;;;;;;4.90;0.97;;;;;10.20;101797.00;;;;10509812;28;20200;-78
2023/03/27 15:06:19;;;;;;;3.30;0.80;;;;;14.20;101804.00;;;;10499018;28;20227;-79
2023/03/27 15:11:38;;;;;;;5.40;1.00;;;;;15.80;101822.00;;;;10519235;28;20212;-78
2023/03/27 15:17:13;;;;;;;5.30;1.00;;;;;13.80;101844.00;;;;10504447;28;20600;-78
2023/03/27 15:22:28;;;;;;;2.53;0.60;;;;;11.70;101846.00;;;;10510245;28;20185;-78
2023/03/27 15:27:39;;;;;;;5.60;1.00;;;;;10.50;101856.00;;;;10494931;28;20229;-78
2023/03/27 15:32:49;;;;;;;3.37;0.77;;;;;8.90;101864.00;;;;10518724;28;20228;-78
2023/03/27 15:37:52;;;;;;;6.50;1.13;;;;;7.80;101872.00;;;;10501612;27;20283;-78
2023/03/27 15:43:03;;;;;;;1.53;0.90;;;;;8.30;101863.00;;;;10526541;27;20264;-77
2023/03/27 15:48:20;;;;;;;6.07;1.53;;;;;10.20;101872.00;;;;10489324;28;20196;-79
2023/03/27 15:53:39;;;;;;;3.73;0.97;;;;;10.10;101857.00;;;;10510773;28;20273;-79
2023/03/27 15:59:00;;;;;;;2.57;0.67;;;;;10.00;101873.00;;;;10542687;28;20200;-79
2023/03/27 16:04:11;;;;;;;3.73;1.00;;;;;9.50;101882.00;;;;10534176;28;20271;-77
2023/03/27 16:10:03;;;;;;;3.57;0.60;;;;;9.80;101882.00;;;;10512220;28;20300;-78
2023/03/27 16:15:30;;;;;;;0.80;0.60;;;;;8.30;101882.00;;;;10421745;27;20695;-78
2023/03/27 16:20:37;;;;;;;4.77;0.93;;;;;7.60;101904.00;;;;10545691;27;20193;-78
2023/03/27 16:25:40;;;;;;;4.43;1.40;;;;;7.20;101907.00;;;;10494634;28;20231;-77
2023/03/27 16:30:42;;;;;;;15.07;9.47;;;;;7.10;101903.00;;;;10534926;28;20215;-78
2023/03/27 16:35:44;;;;;;;6.00;2.70;;;;;7.40;101906.00;;;;10536087;28;20188;-78
2023/03/27 16:40:46;;;;;;;3.37;1.10;;;;;7.30;101925.00;;;;10488545;28;20216;-77
2023/03/27 16:45:48;;;;;;;6.10;2.03;;;;;7.10;101921.00;;;;10508972;28;20203;-78
2023/03/27 16:50:50;;;;;;;5.37;1.07;;;;;6.90;101912.00;;;;10516056;28;20251;-78
2023/03/27 16:55:55;;;;;;;3.30;0.70;;;;;6.90;101925.00;;;;10480088;28;20195;-78
2023/03/27 17:00:57;;;;;;;4.30;1.00;;;;;7.00;101931.00;;;;10500873;28;20200;-78
2023/03/27 17:06:00;;;;;;;5.57;1.10;;;;;6.90;101936.00;;;;10499700;28;20202;-78
2023/03/27 17:11:07;;;;;;;2.53;0.90;;;;;6.80;101939.00;;;;10501839;28;20216;-78
2023/03/27 17:16:10;;;;;;;3.53;1.00;;;;;6.50;101950.00;;;;10528412;28;20192;-77
2023/03/27 17:21:12;;;;;;;4.47;1.00;;;;;6.30;101951.00;;;;10540658;28;20214;-78
2023/03/27 17:26:28;;;;;;;3.67;0.93;;;;;6.10;101967.00;;;;10523623;28;20196;-77
2023/03/27 17:31:31;;;;;;;3.33;1.30;;;;;5.90;101963.00;;;;10524557;28;20242;-78
2023/03/27 17:36:33;;;;;;;6.63;1.97;;;;;5.80;101954.00;;;;10523833;28;20204;-77
2023/03/27 17:41:49;;;;;;;6.20;1.43;;;;;5.70;101980.00;;;;10525201;28;20204;-78
2023/03/27 17:46:51;;;;;;;3.03;1.57;;;;;5.70;101981.00;;;;10545303;27;20339;-78
2023/03/27 17:51:54;;;;;;;6.27;1.13;;;;;5.50;101975.00;;;;10481935;28;20217;-77
2023/03/27 17:56:56;;;;;;;3.23;1.90;;;;;5.30;101986.00;;;;10515037;28;20207;-78
2023/03/27 18:01:58;;;;;;;7.83;1.97;;;;;5.10;101998.00;;;;10542877;27;20188;-78
2023/03/27 18:07:00;;;;;;;6.27;1.40;;;;;4.90;102005.00;;;;10501492;28;20207;-78
2023/03/27 18:12:06;;;;;;;5.00;1.27;;;;;4.80;102003.00;;;;10506809;27;20223;-77
2023/03/27 18:17:08;;;;;;;7.23;1.50;;;;;4.60;102005.00;;;;10506873;28;20204;-77
2023/03/27 18:22:10;;;;;;;4.50;1.40;;;;;4.50;102004.00;;;;10557646;28;20211;-78
2023/03/27 18:27:12;;;;;;;6.07;1.50;;;;;4.40;102010.00;;;;10539687;28;20203;-77
2023/03/27 18:32:14;;;;;;;3.77;1.80;;;;;4.30;102015.00;;;;10534491;27;20272;-78
2023/03/27 18:37:16;;;;;;;8.07;1.77;;;;;4.20;102020.00;;;;10541707;27;20227;-77
2023/03/27 18:42:18;;;;;;;7.23;2.23;;;;;4.10;102016.00;;;;10523362;27;20641;-78
2023/03/27 18:47:20;;;;;;;7.73;2.20;;;;;4.00;102032.00;;;;10549603;28;20223;-77
2023/03/27 18:52:23;;;;;;;5.53;1.73;;;;;3.90;102032.00;;;;10530562;28;20216;-78
2023/03/27 18:57:26;;;;;;;2.77;1.47;;;;;3.80;102036.00;;;;10469106;28;20261;-78
2023/03/27 19:02:28;;;;;;;5.27;1.70;;;;;3.80;102039.00;;;;10516080;27;20200;-78
2023/03/27 19:07:30;;;;;;;7.77;2.23;;;;;3.70;102043.00;;;;10523484;28;20204;-78
2023/03/27 19:12:33;;;;;;;6.10;1.90;;;;;3.60;102036.00;;;;10502961;27;20250;-78
2023/03/27 19:17:56;;;;;;;9.43;2.43;;;;;3.60;102039.00;;;;10521120;28;20193;-78
2023/03/27 19:23:24;;;;;;;8.20;2.17;;;;;3.60;102046.00;;;;10486061;27;20203;-78
2023/03/27 19:28:26;;;;;;;5.00;1.63;;;;;3.50;102050.00;;;;10531883;27;20193;-78
2023/03/27 19:33:28;;;;;;;5.03;2.07;;;;;3.40;102035.00;;;;10482929;28;20209;-78
2023/03/27 19:38:30;;;;;;;4.63;2.03;;;;;3.30;102032.00;;;;10535958;27;20500;-78
2023/03/27 19:43:33;;;;;;;9.73;2.47;;;;;3.20;102030.00;;;;10492242;28;20192;-78
2023/03/27 19:48:36;;;;;;;2.87;1.90;;;;;3.00;102027.00;;;;10515661;28;20711;-78
2023/03/27 19:53:42;;;;;;;6.67;2.10;;;;;2.90;102032.00;;;;10479171;28;20231;-78
2023/03/27 19:58:44;;;;;;;14.20;2.83;;;;;2.90;102031.00;;;;10496925;27;20200;-78
2023/03/27 20:03:47;;;;;;;7.70;2.37;;;;;2.80;102044.00;;;;10537244;27;20192;-78
2023/03/27 20:08:49;;;;;;;6.50;2.00;;;;;2.80;102052.00;;;;10498340;28;20829;-78
2023/03/27 20:13:53;;;;;;;7.30;2.33;;;;;2.70;102049.00;;;;10508086;27;20219;-78
2023/03/27 20:19:03;;;;;;;15.23;2.97;;;;;2.60;102061.00;;;;10510766;28;20201;-77
2023/03/27 20:24:08;;;;;;;8.67;2.17;;;;;2.60;102069.00;;;;10510114;28;20328;-79
2023/03/27 20:29:18;;;;;;;8.10;2.60;;;;;2.50;102073.00;;;;10536413;28;20203;-77
2023/03/27 20:34:21;;;;;;;5.70;1.93;;;;;2.40;102074.00;;;;10535316;28;20920;-78
2023/03/27 20:39:26;;;;;;;9.03;2.10;;;;;2.20;102077.00;;;;10524654;28;20475;-78
2023/03/27 20:44:34;;;;;;;5.73;2.50;;;;;2.00;102084.00;;;;10516824;27;20196;-78
2023/03/27 20:49:41;;;;;;;6.10;3.03;;;;;1.90;102093.00;;;;10476329;28;20201;-78
2023/03/27 20:54:44;;;;;;;11.57;2.83;;;;;1.80;102091.00;;;;10536646;28;20301;-78
2023/03/27 20:59:48;;;;;;;13.13;3.03;;;;;1.70;102090.00;;;;10493996;28;20204;-78
2023/03/27 21:04:50;;;;;;;8.33;2.90;;;;;1.70;102094.00;;;;10513625;28;20290;-78
2023/03/27 21:09:52;;;;;;;9.87;3.47;;;;;1.60;102096.00;;;;10551688;28;20197;-78
2023/03/27 21:14:54;;;;;;;7.20;3.03;;;;;1.60;102093.00;;;;10519225;28;20228;-78
2023/03/27 21:19:56;;;;;;;8.20;3.07;;;;;1.50;102098.00;;;;10536364;28;20196;-78
2023/03/27 21:24:58;;;;;;;9.27;2.87;;;;;1.50;102094.00;;;;10516844;28;20188;-78
2023/03/27 21:30:00;;;;;;;17.17;3.27;;;;;1.50;102097.00;;;;10514999;28;20196;-78
2023/03/27 21:35:02;;;;;;;12.57;3.37;;;;;1.40;102092.00;;;;10514980;28;20240;-79
2023/03/27 21:40:05;;;;;;;10.77;3.30;;;;;1.30;102109.00;;;;10535473;28;20200;-78
2023/03/27 21:45:08;;;;;;;6.97;3.00;;;;;1.20;102104.00;;;;10526680;28;20196;-78
2023/03/27 21:50:10;;;;;;;13.80;3.37;;;;;1.20;102107.00;;;;10473286;28;20282;-78
2023/03/27 21:55:12;;;;;;;10.07;3.50;;;;;1.10;102100.00;;;;10493836;28;20324;-78
2023/03/27 22:00:14;;;;;;;7.07;3.07;;;;;1.00;102098.00;;;;10499129;28;20201;-78
2023/03/27 22:05:17;;;;;;;8.83;3.63;;;;;1.00;102107.00;;;;10499832;28;20204;-78
2023/03/27 22:10:19;;;;;;;8.93;3.60;;;;;0.90;102115.00;;;;10515777;28;20193;-79
2023/03/27 22:15:21;;;;;;;15.37;3.57;;;;;0.90;102114.00;;;;10528991;28;20205;-78
2023/03/27 22:20:27;;;;;;;8.40;3.40;;;;;0.80;102116.00;;;;10524415;28;20215;-78
2023/03/27 22:25:29;;;;;;;6.90;3.40;;;;;0.80;102115.00;;;;10557082;28;20275;-79
2023/03/27 22:30:31;;;;;;;14.57;3.70;;;;;0.80;102114.00;;;;10523622;28;20199;-79
2023/03/27 22:35:33;;;;;;;12.67;4.50;;;;;0.80;102117.00;;;;10540790;27;20235;-79
2023/03/27 22:40:35;;;;;;;10.80;3.70;;;;;0.70;102127.00;;;;10486389;28;20775;-78
2023/03/27 22:45:37;;;;;;;15.30;4.17;;;;;0.70;102132.00;;;;10536254;27;20195;-78
2023/03/27 22:50:40;;;;;;;11.73;4.47;;;;;0.60;102127.00;;;;10522553;28;20323;-78
2023/03/27 22:55:47;;;;;;;15.77;3.63;;;;;0.50;102127.00;;;;10505298;28;20200;-79
2023/03/27 23:00:51;;;;;;;17.23;3.63;;;;;0.50;102136.00;;;;10479911;28;20696;-78
2023/03/27 23:05:53;;;;;;;16.67;3.83;;;;;0.50;102140.00;;;;10495685;28;20200;-78
2023/03/27 23:11:01;;;;;;;10.93;3.50;;;;;0.50;102139.00;;;;10485458;28;20218;-79
2023/03/27 23:16:04;;;;;;;10.50;3.67;;;;;0.50;102139.00;;;;10496245;28;20734;-79
2023/03/27 23:21:08;;;;;;;10.03;4.00;;;;;0.60;102130.00;;;;10479497;28;20816;-79
2023/03/27 23:26:11;;;;;;;8.33;4.03;;;;;0.60;102141.00;;;;10516293;28;20204;-79
2023/03/27 23:31:16;;;;;;;13.00;3.87;;;;;0.60;102145.00;;;;10514289;28;20246;-79
2023/03/27 23:36:23;;;;;;;10.73;3.80;;;;;0.60;102156.00;;;;10509816;27;20192;-79
2023/03/27 23:41:26;;;;;;;7.00;3.63;;;;;0.60;102154.00;;;;10495269;28;20223;-79
2023/03/27 23:46:28;;;;;;;10.00;4.20;;;;;0.50;102163.00;;;;10529552;27;20200;-78
2023/03/27 23:51:30;;;;;;;8.00;3.90;;;;;0.50;102170.00;;;;10516155;28;20547;-79
2023/03/27 23:56:32;;;;;;;16.67;4.13;;;;;0.40;102168.00;;;;10520545;28;20204;-78
